This is the latest recevied weather packets stored in our database for station/object SV1JCZ-13. If no packets are shown the sender has not sent any weather packets the latest 10 day(s).
| Time | Temp. | Humidity | Pressure | Rain* | Wind** | Luminosity | Snow |
|---|---|---|---|---|---|---|---|
| 1778171361 | 21.67° C | 57% | 0 hPa | 0 mm | - | - | - |
| 1778171240 | 22.22° C | 56% | 0 hPa | 0 mm | - | - | - |
| 1778170880 | 22.78° C | 55% | 0 hPa | 0 mm | - | - | - |
| 1778170520 | 22.78° C | 53% | 0 hPa | 0 mm | - | - | - |
| 1778170160 | 23.33° C | 52% | 0 hPa | 0 mm | - | - | - |
| 1778169800 | 23.33° C | 51% | 0 hPa | 0 mm | - | - | - |
| 1778169440 | 23.33° C | 49% | 0 hPa | 0 mm | - | - | - |
| 1778169080 | 23.33° C | 47% | 0 hPa | 0 mm | - | - | - |
| 1778168961 | 23.33° C | 46% | 0 hPa | 0 mm | - | - | - |
| 1778168720 | 23.33° C | 46% | 0 hPa | 0 mm | - | - | - |
| 1778168360 | 23.33° C | 47% | 0 hPa | 0 mm | - | - | - |
| 1778168000 | 23.33° C | 49% | 0 hPa | 0 mm | - | - | - |
| 1778167762 | 23.33° C | 49% | 0 hPa | 0 mm | - | - | - |
| 1778167640 | 23.33° C | 49% | 0 hPa | 0 mm | - | - | - |
| 1778167280 | 23.89° C | 49% | 0 hPa | 0 mm | - | - | - |
| 1778166920 | 23.89° C | 50% | 0 hPa | 0 mm | - | - | - |
| 1778166560 | 22.78° C | 52% | 0 hPa | 0 mm | - | - | - |
| 1778166200 | 22.22° C | 55% | 0 hPa | 0 mm | - | - | - |
| 1778165840 | 21.67° C | 55% | 0 hPa | 0 mm | - | - | - |
| 1778165480 | 21.67° C | 55% | 0 hPa | 0 mm | - | - | - |
| 1778165120 | 21.67° C | 55% | 0 hPa | 0 mm | - | - | - |
| 1778164760 | 21.67° C | 54% | 0 hPa | 0 mm | - | - | - |
| 1778164400 | 21.67° C | 54% | 0 hPa | 0 mm | - | - | - |
| 1778164041 | 21.67° C | 53% | 0 hPa | 0 mm | - | - | - |
| 1778163680 | 21.67° C | 52% | 0 hPa | 0 mm | - | - | - |
* Rain latest hour (hover to see other rain measurements)
** Current wind speed in m/s (hover to see current wind gust speed)